createdAt,value
2018-01-06T00:23:48.489Z,36.93
2018-01-06T00:42:52.172Z,41.33
2018-01-06T00:48:05.654Z,41.07
2018-01-06T00:50:37.814Z,43.47
2018-01-06T00:53:11.360Z,43.83
2018-01-06T00:55:40.104Z,45.73
2018-01-06T01:03:49.951Z,49.63
2018-01-06T01:06:24.771Z,58.67
2018-01-06T01:14:30.217Z,73.60
2018-01-06T01:25:29.136Z,58.87
2018-01-06T01:28:07.288Z,51.73
2018-01-06T01:33:33.191Z,52.27
2018-01-06T01:52:42.068Z,60.23
2018-01-06T02:00:43.973Z,54.07
2018-01-06T02:03:12.807Z,52.60
2018-01-06T02:11:20.661Z,55.27
2018-01-06T02:14:02.211Z,50.90
2018-01-06T02:16:39.343Z,50.70
2018-01-06T02:19:07.099Z,53.03
2018-01-06T02:21:50.219Z,55.13
2018-01-06T02:29:47.986Z,58.40
2018-01-06T02:32:24.751Z,53.43
2018-01-06T02:34:51.502Z,51.33
2018-01-06T02:37:18.225Z,51.83
2018-01-06T02:45:32.905Z,53.73
2018-01-06T02:48:05.091Z,57.00
2018-01-06T02:50:33.822Z,57.87
2018-01-06T02:53:01.624Z,56.00
2018-01-06T02:55:33.026Z,56.83
2018-01-06T03:00:55.246Z,55.47
2018-01-06T03:08:52.797Z,51.90
2018-01-06T03:11:19.516Z,53.60
2018-01-06T03:13:53.452Z,51.40
2018-01-06T03:19:09.394Z,57.00
2018-01-06T03:49:10.157Z,53.77
2018-01-06T03:51:36.919Z,49.50
2018-01-06T03:54:09.743Z,51.00
2018-01-06T03:56:37.458Z,54.63
2018-01-06T03:59:06.100Z,56.67
2018-01-06T04:01:36.376Z,57.00
2018-01-06T04:04:06.940Z,55.73
2018-01-06T04:14:54.740Z,61.40
2018-01-06T04:20:08.594Z,60.70
2018-01-06T04:22:52.443Z,60.20
2018-01-06T04:25:25.258Z,56.67
2018-01-06T04:27:54.490Z,65.17
2018-01-06T04:30:21.222Z,66.23
2018-01-06T04:32:47.955Z,63.17
2018-01-06T04:35:20.929Z,65.00
2018-01-06T04:40:49.854Z,64.60
2018-01-06T04:43:18.624Z,64.43
2018-01-06T04:45:46.351Z,63.87
2018-01-06T04:48:30.353Z,63.60
2018-01-06T04:51:08.386Z,60.43
2018-01-06T04:53:35.109Z,56.27
2018-01-06T05:01:42.169Z,45.63
2018-01-06T05:04:19.692Z,52.13
2018-01-06T05:09:36.853Z,46.33
2018-01-06T05:12:14.412Z,48.90
2018-01-06T05:14:42.102Z,47.13
2018-01-06T05:17:12.808Z,53.00
2018-01-06T05:19:39.485Z,53.83
2018-01-06T05:22:06.238Z,55.57
2018-01-06T05:27:31.306Z,53.93
2018-01-06T05:30:00.138Z,57.33
2018-01-06T05:54:40.574Z,38.03
2018-01-06T05:57:07.320Z,38.43
2018-01-06T05:59:48.669Z,38.00
2018-01-06T06:07:57.054Z,41.97
2018-01-06T06:10:25.802Z,42.03
2018-01-06T06:12:52.523Z,40.17
2018-01-06T06:15:19.250Z,44.47
2018-01-06T06:20:41.626Z,48.90
2018-01-06T06:23:21.856Z,49.23
2018-01-06T06:25:52.092Z,46.23
2018-01-06T06:58:40.928Z,40.87
2018-01-06T07:04:11.826Z,40.30
2018-01-06T07:09:24.123Z,37.77
2018-01-06T07:23:10.994Z,46.33
2018-01-06T07:34:00.396Z,62.63
2018-01-06T07:36:27.110Z,61.40
2018-01-06T07:38:53.952Z,66.70
2018-01-06T07:41:34.640Z,68.90
2018-01-06T07:44:16.003Z,76.57
2018-01-06T07:47:01.484Z,71.77
2018-01-06T07:49:33.438Z,73.80
2018-01-06T07:52:00.154Z,69.40
2018-01-06T07:54:31.148Z,68.17
2018-01-06T07:56:58.870Z,67.20
2018-01-06T07:59:40.322Z,69.40
2018-01-06T08:02:07.081Z,68.00
2018-01-06T08:04:47.986Z,66.60
2018-01-06T08:07:15.728Z,64.00
2018-01-06T08:09:54.052Z,62.37
2018-01-06T08:12:20.872Z,64.07
2018-01-06T08:14:47.588Z,60.77
2018-01-06T08:17:22.966Z,58.20
2018-01-06T08:19:50.643Z,48.67
2018-01-06T08:22:20.544Z,53.30
2018-01-06T08:24:47.302Z,52.70
2018-01-06T08:27:14.976Z,49.87
2018-01-06T08:29:53.476Z,53.87
2018-01-06T08:32:25.566Z,62.43
2018-01-06T08:35:03.023Z,67.43
2018-01-06T08:37:29.748Z,65.77
2018-01-06T08:42:51.336Z,78.83
2018-01-06T08:45:29.946Z,95.73
2018-01-06T08:50:49.132Z,97.33
2018-01-06T08:53:15.840Z,91.97
2018-01-06T08:55:42.526Z,78.07
2018-01-06T09:01:08.282Z,85.13
2018-01-06T09:06:21.146Z,77.17
2018-01-06T09:08:55.481Z,73.33
2018-01-06T09:11:27.802Z,84.90
2018-01-06T09:13:58.471Z,76.67
2018-01-06T09:16:25.201Z,74.07
2018-01-06T09:18:51.912Z,77.50
2018-01-06T09:21:18.671Z,65.37
2018-01-06T09:23:46.186Z,72.43
2018-01-06T09:26:12.920Z,63.00
2018-01-06T09:28:46.032Z,65.70
2018-01-06T09:31:12.743Z,68.50
2018-01-06T09:36:32.933Z,87.00
2018-01-06T09:39:03.472Z,79.63
2018-01-06T09:41:31.342Z,86.70
2018-01-06T09:43:58.146Z,87.30
2018-01-06T09:46:27.855Z,91.60
2018-01-06T09:48:59.360Z,91.30
2018-01-06T09:51:26.050Z,80.33
2018-01-06T09:53:52.798Z,75.50
2018-01-06T09:56:36.233Z,68.87
2018-01-06T09:59:03.014Z,65.27
2018-01-06T10:01:30.250Z,66.57
2018-01-06T10:03:56.974Z,65.73
2018-01-06T10:09:11.129Z,59.40
2018-01-06T10:14:17.945Z,52.57
2018-01-06T10:16:44.676Z,46.80
2018-01-06T10:19:12.170Z,45.23
2018-01-06T10:21:43.852Z,46.57
2018-01-06T10:30:01.866Z,43.93
2018-01-06T10:32:28.570Z,47.33
2018-01-06T10:37:54.247Z,46.10
2018-01-06T10:40:21.145Z,41.93
2018-01-06T10:42:47.899Z,52.23
2018-01-06T10:45:14.627Z,51.60
2018-01-06T10:47:41.351Z,50.77
2018-01-06T10:50:08.030Z,44.97
2018-01-06T10:52:34.707Z,45.87
2018-01-06T10:55:03.695Z,43.57
2018-01-06T10:57:30.428Z,44.60
2018-01-06T10:59:57.143Z,44.67
2018-01-06T11:02:24.943Z,41.83
2018-01-06T11:04:53.515Z,39.63
2018-01-06T11:07:20.347Z,43.97
2018-01-06T11:09:47.108Z,46.23
2018-01-06T11:12:13.816Z,46.77
2018-01-06T11:14:40.511Z,48.33
2018-01-06T11:17:07.215Z,43.63
2018-01-06T11:19:33.905Z,42.83
2018-01-06T11:22:02.571Z,40.07
2018-01-06T11:24:29.291Z,45.10
2018-01-06T11:26:55.994Z,47.23
2018-01-06T11:29:22.682Z,44.37
2018-01-06T11:31:49.392Z,45.77
2018-01-06T11:34:16.103Z,45.80
2018-01-06T11:39:38.424Z,43.57
2018-01-06T11:45:23.093Z,39.77
2018-01-06T11:47:49.822Z,43.20
2018-01-06T11:53:18.073Z,36.43
2018-01-06T11:55:44.809Z,36.63
2018-01-06T12:00:59.535Z,39.80
2018-01-06T12:03:26.321Z,42.43
2018-01-06T12:05:56.598Z,34.77
2018-01-06T12:17:25.523Z,30.73
2018-01-06T12:19:58.971Z,32.17
2018-01-06T12:22:25.834Z,30.77
2018-01-06T12:24:53.358Z,31.30
2018-01-06T12:27:24.545Z,31.47
2018-01-06T12:29:51.423Z,29.23
2018-01-06T12:32:18.230Z,31.77
2018-01-06T12:34:45.479Z,28.60
2018-01-06T12:37:16.382Z,28.13
2018-01-06T12:39:43.199Z,26.10
2018-01-06T12:42:09.891Z,28.83
2018-01-06T12:44:36.599Z,27.63
2018-01-06T12:47:03.290Z,27.10
2018-01-06T12:49:30.003Z,28.17
2018-01-06T12:51:56.729Z,27.43
2018-01-06T12:54:23.441Z,28.37
2018-01-06T12:56:50.139Z,27.87
2018-01-06T12:59:16.964Z,29.90
2018-01-06T13:01:43.657Z,32.23
2018-01-06T13:04:10.362Z,29.10
2018-01-06T13:06:37.077Z,24.47
2018-01-06T13:09:03.805Z,21.63
2018-01-06T13:11:30.492Z,20.57
2018-01-06T13:13:57.209Z,21.53
2018-01-06T13:16:23.895Z,23.87
2018-01-06T13:18:50.596Z,22.63
2018-01-06T13:21:17.321Z,21.33
2018-01-06T13:23:44.015Z,23.60
2018-01-06T13:28:58.083Z,22.87
2018-01-06T13:31:24.814Z,24.03
2018-01-06T13:33:51.552Z,24.57
2018-01-06T13:36:18.245Z,31.33
2018-01-06T13:38:44.955Z,28.87
2018-01-06T13:41:11.667Z,27.23
2018-01-06T13:43:38.354Z,29.20
2018-01-06T13:46:05.061Z,29.50
2018-01-06T13:48:32.031Z,28.33
2018-01-06T13:50:58.718Z,31.67
2018-01-06T13:53:25.438Z,30.63
2018-01-06T13:55:52.134Z,29.00
2018-01-06T13:58:18.875Z,28.80
2018-01-06T14:00:45.609Z,27.57
2018-01-06T14:03:12.297Z,29.27
2018-01-06T14:05:38.992Z,27.60
2018-01-06T14:08:05.695Z,28.20
2018-01-06T14:10:32.382Z,33.83
2018-01-06T14:12:59.077Z,37.00
2018-01-06T14:15:25.819Z,34.27
2018-01-06T14:17:52.511Z,37.30
2018-01-06T14:20:19.200Z,51.23
2018-01-06T14:22:45.914Z,58.67
2018-01-06T14:25:13.512Z,53.30
2018-01-06T14:27:40.207Z,53.77
2018-01-06T14:30:06.931Z,49.57
2018-01-06T14:32:33.690Z,52.17
2018-01-06T14:35:03.340Z,49.83
2018-01-06T14:37:34.524Z,44.50
2018-01-06T14:39:56.887Z,48.33
2018-01-06T14:42:24.549Z,47.73
2018-01-06T14:44:51.289Z,50.07
2018-01-06T14:47:20.503Z,49.73
2018-01-06T14:49:47.212Z,70.10
2018-01-06T14:52:14.496Z,110.57
2018-01-06T14:54:42.300Z,100.53
2018-01-06T14:57:10.967Z,89.90
2018-01-06T14:59:37.703Z,77.40
2018-01-06T15:02:04.386Z,76.50
2018-01-06T15:04:36.735Z,63.53
2018-01-06T15:07:03.526Z,66.13
2018-01-06T15:09:30.411Z,61.50
2018-01-06T15:11:57.137Z,75.13
2018-01-06T15:14:23.903Z,76.03
2018-01-06T15:16:50.593Z,92.93
2018-01-06T15:19:17.300Z,87.20
2018-01-06T15:21:44.026Z,87.47
2018-01-06T15:24:10.755Z,101.90
2018-01-06T15:26:37.483Z,99.53
2018-01-06T15:29:04.228Z,104.43
2018-01-06T15:31:30.945Z,96.13
2018-01-06T15:33:57.778Z,96.17
2018-01-06T15:36:24.545Z,107.17
2018-01-06T15:38:51.286Z,105.70
2018-01-06T15:41:17.997Z,105.90
2018-01-06T15:43:44.742Z,110.43
2018-01-06T15:46:11.446Z,124.47
2018-01-06T15:48:38.167Z,182.73
2018-01-06T15:51:04.894Z,192.03
2018-01-06T15:53:31.583Z,147.67
2018-01-06T15:55:58.293Z,129.67
2018-01-06T15:58:25.039Z,116.57
2018-01-06T16:00:51.749Z,116.53
2018-01-06T16:03:18.753Z,100.03
2018-01-06T16:05:48.011Z,101.93
2018-01-06T16:08:16.951Z,111.27
2018-01-06T16:10:43.685Z,99.97
2018-01-06T16:13:10.981Z,107.47
2018-01-06T16:15:37.679Z,100.57
2018-01-06T16:18:04.368Z,101.63
2018-01-06T16:20:31.195Z,97.77
2018-01-06T16:22:58.841Z,92.17
2018-01-06T16:25:25.773Z,87.57
2018-01-06T16:27:52.483Z,88.27
2018-01-06T16:30:19.193Z,90.40
2018-01-06T16:32:45.895Z,91.10
2018-01-06T16:35:12.636Z,87.40
2018-01-06T16:37:39.331Z,87.87
2018-01-06T16:40:06.024Z,86.13
2018-01-06T16:42:32.739Z,88.97
2018-01-06T16:44:59.441Z,91.73
2018-01-06T16:47:26.883Z,92.53
2018-01-06T16:49:53.608Z,97.37
2018-01-06T16:52:20.299Z,91.40
2018-01-06T16:54:46.995Z,92.47
2018-01-06T16:57:13.699Z,93.13
2018-01-06T16:59:40.403Z,91.53
2018-01-06T17:02:07.117Z,104.47
2018-01-06T17:04:33.855Z,113.93
2018-01-06T17:07:00.555Z,111.10
2018-01-06T17:09:27.275Z,115.47
2018-01-06T17:11:54.000Z,105.20
2018-01-06T17:14:20.822Z,101.53
2018-01-06T17:16:48.127Z,113.90
2018-01-06T17:19:14.855Z,116.37
2018-01-06T17:21:41.604Z,113.13
2018-01-06T17:24:08.379Z,102.00
2018-01-06T17:26:35.103Z,103.43
2018-01-06T17:29:02.419Z,103.93
2018-01-06T17:31:29.195Z,93.23
2018-01-06T17:33:56.027Z,95.03
2018-01-06T17:36:22.807Z,104.67
2018-01-06T17:38:49.597Z,96.47
2018-01-06T17:41:16.525Z,96.17
2018-01-06T17:43:44.035Z,92.87
2018-01-06T17:46:11.090Z,96.03
2018-01-06T17:48:37.887Z,95.13
2018-01-06T17:51:04.667Z,93.97
2018-01-06T17:53:31.516Z,89.90
2018-01-06T17:55:58.574Z,85.43
2018-01-06T17:58:25.410Z,88.47
2018-01-06T18:06:39.771Z,93.60
2018-01-06T18:09:06.537Z,104.60
2018-01-06T18:11:33.229Z,109.60
2018-01-06T18:14:14.030Z,112.63
2018-01-06T18:16:41.405Z,117.80
2018-01-06T18:26:43.875Z,139.07
2018-01-06T18:29:20.743Z,130.87
2018-01-06T18:31:50.198Z,120.93
2018-01-06T18:34:20.258Z,120.37
2018-01-06T18:36:48.172Z,119.07
2018-01-06T18:39:14.892Z,115.50
2018-01-06T18:41:51.736Z,111.03
2018-01-06T18:44:20.101Z,116.33
2018-01-06T18:46:49.248Z,119.63
2018-01-06T18:49:17.427Z,110.13
2018-01-06T18:51:44.213Z,121.20
2018-01-06T18:54:13.905Z,112.33
2018-01-06T18:59:27.689Z,100.47
2018-01-06T19:01:55.498Z,106.30
2018-01-06T19:04:30.993Z,103.53
2018-01-06T19:06:58.824Z,106.10
2018-01-06T19:09:39.955Z,104.20
2018-01-06T19:12:10.715Z,103.93
2018-01-06T19:14:40.637Z,104.40
2018-01-06T19:17:10.095Z,104.93
2018-01-06T19:22:20.963Z,104.53
2018-01-06T19:24:47.717Z,105.83
2018-01-06T19:27:14.407Z,105.97
2018-01-06T19:29:41.118Z,104.03
2018-01-06T19:32:07.861Z,108.60
2018-01-06T19:34:34.568Z,106.93
2018-01-06T19:37:01.276Z,100.17
2018-01-06T19:39:28.010Z,113.70
2018-01-06T19:41:54.710Z,111.50
2018-01-06T19:44:21.397Z,111.83
2018-01-06T19:46:48.577Z,114.63
2018-01-06T19:49:15.616Z,95.80
2018-01-06T19:51:42.445Z,92.17
2018-01-06T19:54:09.157Z,100.07
2018-01-06T19:56:35.869Z,97.37
2018-01-06T19:59:03.293Z,98.67
2018-01-06T20:01:30.057Z,100.20
2018-01-06T20:03:56.756Z,107.23
2018-01-06T20:06:23.482Z,100.67
2018-01-06T20:08:50.250Z,103.37
2018-01-06T20:11:16.948Z,105.27
2018-01-06T20:13:43.718Z,102.07
2018-01-06T20:16:10.656Z,106.37
2018-01-06T20:18:37.401Z,111.67
2018-01-06T20:21:04.995Z,107.03
2018-01-06T20:23:31.748Z,107.73
2018-01-06T20:25:58.456Z,117.53
2018-01-06T20:28:25.174Z,117.07
2018-01-06T20:31:03.305Z,118.53
2018-01-06T20:33:30.004Z,111.93
2018-01-06T20:35:56.754Z,118.60
2018-01-06T20:38:23.495Z,117.20
2018-01-06T20:40:50.346Z,119.47
2018-01-06T20:43:17.068Z,114.37
2018-01-06T20:45:44.768Z,124.70
2018-01-06T20:48:11.479Z,126.80
2018-01-06T20:50:38.280Z,119.07
2018-01-06T20:53:05.018Z,131.87
2018-01-06T20:55:31.921Z,122.00
2018-01-06T20:57:58.944Z,128.43
2018-01-06T21:00:25.753Z,137.67
2018-01-06T21:02:52.666Z,148.87
2018-01-06T21:05:20.346Z,148.20
2018-01-06T21:07:47.998Z,155.50
2018-01-06T21:10:14.802Z,143.27
2018-01-06T21:12:41.501Z,140.40
2018-01-06T21:15:08.278Z,135.67
2018-01-06T21:17:35.040Z,148.60
2018-01-06T21:20:01.812Z,148.70
2018-01-06T21:22:33.899Z,146.93
2018-01-06T21:25:01.158Z,149.70
2018-01-06T21:27:27.884Z,153.90
2018-01-06T21:29:55.714Z,143.70
2018-01-06T21:32:22.422Z,148.30
2018-01-06T21:37:44.296Z,143.30
2018-01-06T21:40:11.069Z,139.90
2018-01-06T21:42:37.783Z,133.33
2018-01-06T21:45:05.720Z,131.67
2018-01-06T21:47:32.437Z,136.30
2018-01-06T21:50:04.247Z,138.13
2018-01-06T21:52:31.004Z,136.27
2018-01-06T21:54:58.258Z,134.37
2018-01-06T21:57:25.848Z,124.93
2018-01-06T21:59:52.583Z,129.77
2018-01-06T22:02:19.317Z,119.80
2018-01-06T22:04:46.052Z,122.23
2018-01-06T22:07:12.746Z,128.63
2018-01-06T22:09:39.508Z,122.87
2018-01-06T22:12:08.517Z,126.40
2018-01-06T22:14:35.261Z,132.17
2018-01-06T22:17:07.764Z,135.33
2018-01-06T22:19:39.819Z,127.37
2018-01-06T22:22:06.536Z,130.13
2018-01-06T22:24:39.700Z,136.17
2018-01-06T22:27:11.524Z,128.87
2018-01-06T22:29:41.310Z,135.60
2018-01-06T22:32:11.886Z,129.23
2018-01-06T22:37:24.636Z,110.70
2018-01-06T22:39:54.676Z,117.13
2018-01-06T22:42:22.412Z,112.07
2018-01-06T22:45:02.436Z,114.47
2018-01-06T22:47:32.702Z,114.83
2018-01-06T22:50:01.453Z,116.53
2018-01-06T22:52:33.060Z,120.20
2018-01-06T22:57:46.916Z,117.67
2018-01-06T23:03:02.694Z,116.20
2018-01-06T23:05:29.422Z,113.00
2018-01-06T23:07:56.145Z,118.43
2018-01-06T23:13:16.336Z,114.37
2018-01-06T23:15:43.933Z,116.77
2018-01-06T23:18:17.898Z,115.40
2018-01-06T23:20:44.632Z,103.83
2018-01-06T23:23:12.320Z,97.73
2018-01-06T23:25:51.556Z,94.30
2018-01-06T23:31:14.458Z,82.73
2018-01-06T23:33:42.084Z,72.20
2018-01-06T23:36:08.767Z,75.93
2018-01-06T23:44:20.871Z,107.50
2018-01-06T23:49:35.298Z,120.27
2018-01-06T23:52:16.222Z,118.03
2018-01-06T23:54:57.926Z,103.47
2018-01-06T23:57:37.320Z,111.20
